sensor_id;sensor_type;location;lat;lon;timestamp;P1;durP1;ratioP1;P2;durP2;ratioP2
64225;SDS011;50545;56.064;26.178;2023-03-01T00:01:29;2.92;;;1.02;;
64225;SDS011;50545;56.064;26.178;2023-03-01T00:03:57;1.17;;;0.90;;
64225;SDS011;50545;56.064;26.178;2023-03-01T00:06:26;3.53;;;0.95;;
64225;SDS011;50545;56.064;26.178;2023-03-01T00:08:53;3.03;;;1.20;;
64225;SDS011;50545;56.064;26.178;2023-03-01T00:13:54;2.63;;;1.23;;
64225;SDS011;50545;56.064;26.178;2023-03-01T00:18:54;1.67;;;0.80;;
64225;SDS011;50545;56.064;26.178;2023-03-01T00:21:22;2.20;;;1.08;;
64225;SDS011;50545;56.064;26.178;2023-03-01T00:23:50;4.45;;;1.20;;
64225;SDS011;50545;56.064;26.178;2023-03-01T00:26:18;3.55;;;1.00;;
64225;SDS011;50545;56.064;26.178;2023-03-01T00:28:46;3.70;;;1.13;;
64225;SDS011;50545;56.064;26.178;2023-03-01T00:31:15;3.88;;;1.02;;
64225;SDS011;50545;56.064;26.178;2023-03-01T00:33:47;4.63;;;1.40;;
64225;SDS011;50545;56.064;26.178;2023-03-01T00:36:15;5.22;;;1.40;;
64225;SDS011;50545;56.064;26.178;2023-03-01T00:38:43;3.25;;;1.00;;
64225;SDS011;50545;56.064;26.178;2023-03-01T00:41:13;5.78;;;1.25;;
64225;SDS011;50545;56.064;26.178;2023-03-01T00:43:42;6.55;;;1.60;;
64225;SDS011;50545;56.064;26.178;2023-03-01T00:46:14;6.43;;;1.70;;
64225;SDS011;50545;56.064;26.178;2023-03-01T00:48:46;3.90;;;1.20;;
64225;SDS011;50545;56.064;26.178;2023-03-01T00:51:15;2.33;;;0.90;;
64225;SDS011;50545;56.064;26.178;2023-03-01T00:53:47;2.92;;;0.90;;
64225;SDS011;50545;56.064;26.178;2023-03-01T00:56:17;5.60;;;1.20;;
64225;SDS011;50545;56.064;26.178;2023-03-01T00:58:45;2.35;;;1.08;;
64225;SDS011;50545;56.064;26.178;2023-03-01T01:01:13;3.80;;;1.17;;
64225;SDS011;50545;56.064;26.178;2023-03-01T01:03:46;4.32;;;0.90;;
64225;SDS011;50545;56.064;26.178;2023-03-01T01:06:16;3.28;;;1.02;;
64225;SDS011;50545;56.064;26.178;2023-03-01T01:08:47;5.35;;;1.20;;
64225;SDS011;50545;56.064;26.178;2023-03-01T01:11:16;2.85;;;1.30;;
64225;SDS011;50545;56.064;26.178;2023-03-01T01:13:45;4.75;;;1.20;;
64225;SDS011;50545;56.064;26.178;2023-03-01T01:16:14;3.92;;;1.10;;
64225;SDS011;50545;56.064;26.178;2023-03-01T01:18:43;2.67;;;1.25;;
64225;SDS011;50545;56.064;26.178;2023-03-01T01:21:12;5.60;;;1.50;;
64225;SDS011;50545;56.064;26.178;2023-03-01T01:23:41;3.38;;;1.38;;
64225;SDS011;50545;56.064;26.178;2023-03-01T01:26:10;3.97;;;1.20;;
64225;SDS011;50545;56.064;26.178;2023-03-01T01:28:42;3.78;;;1.13;;
64225;SDS011;50545;56.064;26.178;2023-03-01T01:31:10;3.80;;;1.17;;
64225;SDS011;50545;56.064;26.178;2023-03-01T01:33:37;5.72;;;1.27;;
64225;SDS011;50545;56.064;26.178;2023-03-01T01:36:05;2.88;;;1.20;;
64225;SDS011;50545;56.064;26.178;2023-03-01T01:38:34;3.95;;;1.35;;
64225;SDS011;50545;56.064;26.178;2023-03-01T01:41:02;4.53;;;1.00;;
64225;SDS011;50545;56.064;26.178;2023-03-01T01:43:35;2.90;;;0.95;;
64225;SDS011;50545;56.064;26.178;2023-03-01T01:46:13;2.35;;;1.17;;
64225;SDS011;50545;56.064;26.178;2023-03-01T01:48:53;4.80;;;1.52;;
64225;SDS011;50545;56.064;26.178;2023-03-01T01:51:24;4.30;;;0.98;;
64225;SDS011;50545;56.064;26.178;2023-03-01T01:54:21;5.40;;;1.60;;
64225;SDS011;50545;56.064;26.178;2023-03-01T01:56:59;5.57;;;1.50;;
64225;SDS011;50545;56.064;26.178;2023-03-01T01:59:30;4.47;;;1.05;;
64225;SDS011;50545;56.064;26.178;2023-03-01T02:02:00;5.15;;;1.73;;
64225;SDS011;50545;56.064;26.178;2023-03-01T02:04:31;4.10;;;1.02;;
64225;SDS011;50545;56.064;26.178;2023-03-01T02:07:16;4.65;;;1.35;;
64225;SDS011;50545;56.064;26.178;2023-03-01T02:09:47;5.82;;;1.52;;
64225;SDS011;50545;56.064;26.178;2023-03-01T02:12:17;3.78;;;1.20;;
64225;SDS011;50545;56.064;26.178;2023-03-01T02:14:50;3.50;;;0.90;;
64225;SDS011;50545;56.064;26.178;2023-03-01T02:17:18;3.60;;;1.20;;
64225;SDS011;50545;56.064;26.178;2023-03-01T02:22:34;3.70;;;1.50;;
64225;SDS011;50545;56.064;26.178;2023-03-01T02:30:43;3.97;;;1.25;;
64225;SDS011;50545;56.064;26.178;2023-03-01T02:33:32;4.28;;;1.50;;
64225;SDS011;50545;56.064;26.178;2023-03-01T02:36:10;3.58;;;1.23;;
64225;SDS011;50545;56.064;26.178;2023-03-01T02:38:41;2.25;;;1.40;;
64225;SDS011;50545;56.064;26.178;2023-03-01T02:41:09;3.42;;;1.08;;
64225;SDS011;50545;56.064;26.178;2023-03-01T02:43:39;3.30;;;1.48;;
64225;SDS011;50545;56.064;26.178;2023-03-01T02:46:12;7.65;;;1.38;;
64225;SDS011;50545;56.064;26.178;2023-03-01T02:48:58;5.50;;;1.60;;
64225;SDS011;50545;56.064;26.178;2023-03-01T02:56:26;5.10;;;1.25;;
64225;SDS011;50545;56.064;26.178;2023-03-01T02:58:54;3.50;;;0.98;;
64225;SDS011;50545;56.064;26.178;2023-03-01T03:01:27;7.32;;;2.00;;
64225;SDS011;50545;56.064;26.178;2023-03-01T03:04:04;6.18;;;1.40;;
64225;SDS011;50545;56.064;26.178;2023-03-01T03:06:32;6.03;;;1.67;;
64225;SDS011;50545;56.064;26.178;2023-03-01T03:09:00;4.45;;;1.20;;
64225;SDS011;50545;56.064;26.178;2023-03-01T03:11:27;3.13;;;1.15;;
64225;SDS011;50545;56.064;26.178;2023-03-01T03:13:54;4.28;;;1.40;;
64225;SDS011;50545;56.064;26.178;2023-03-01T03:16:22;5.18;;;1.60;;
64225;SDS011;50545;56.064;26.178;2023-03-01T03:18:49;4.80;;;1.30;;
64225;SDS011;50545;56.064;26.178;2023-03-01T03:21:17;4.32;;;1.38;;
64225;SDS011;50545;56.064;26.178;2023-03-01T03:23:44;4.43;;;1.38;;
64225;SDS011;50545;56.064;26.178;2023-03-01T03:26:11;3.17;;;1.05;;
64225;SDS011;50545;56.064;26.178;2023-03-01T03:28:39;1.88;;;0.75;;
64225;SDS011;50545;56.064;26.178;2023-03-01T03:31:07;5.05;;;1.58;;
64225;SDS011;50545;56.064;26.178;2023-03-01T03:33:35;6.25;;;1.52;;
64225;SDS011;50545;56.064;26.178;2023-03-01T03:36:02;5.05;;;1.23;;
64225;SDS011;50545;56.064;26.178;2023-03-01T03:38:31;3.38;;;1.15;;
64225;SDS011;50545;56.064;26.178;2023-03-01T03:40:59;7.80;;;1.73;;
64225;SDS011;50545;56.064;26.178;2023-03-01T03:43:30;5.50;;;1.40;;
64225;SDS011;50545;56.064;26.178;2023-03-01T03:45:59;2.40;;;1.10;;
64225;SDS011;50545;56.064;26.178;2023-03-01T03:48:26;6.65;;;1.45;;
64225;SDS011;50545;56.064;26.178;2023-03-01T03:50:55;4.80;;;1.35;;
64225;SDS011;50545;56.064;26.178;2023-03-01T03:53:23;4.88;;;1.60;;
64225;SDS011;50545;56.064;26.178;2023-03-01T03:55:55;6.25;;;1.67;;
64225;SDS011;50545;56.064;26.178;2023-03-01T03:58:23;2.88;;;1.08;;
64225;SDS011;50545;56.064;26.178;2023-03-01T04:00:53;3.55;;;1.15;;
64225;SDS011;50545;56.064;26.178;2023-03-01T04:03:25;4.20;;;1.38;;
64225;SDS011;50545;56.064;26.178;2023-03-01T04:05:53;4.68;;;1.52;;
64225;SDS011;50545;56.064;26.178;2023-03-01T04:08:21;3.72;;;1.23;;
64225;SDS011;50545;56.064;26.178;2023-03-01T04:10:50;6.10;;;1.63;;
64225;SDS011;50545;56.064;26.178;2023-03-01T04:13:20;6.10;;;1.40;;
64225;SDS011;50545;56.064;26.178;2023-03-01T04:15:49;3.85;;;1.50;;
64225;SDS011;50545;56.064;26.178;2023-03-01T04:18:17;5.72;;;1.67;;
64225;SDS011;50545;56.064;26.178;2023-03-01T04:20:49;4.53;;;1.15;;
64225;SDS011;50545;56.064;26.178;2023-03-01T04:23:19;6.53;;;1.33;;
64225;SDS011;50545;56.064;26.178;2023-03-01T04:25:51;4.43;;;1.45;;
64225;SDS011;50545;56.064;26.178;2023-03-01T04:28:23;7.53;;;1.80;;
64225;SDS011;50545;56.064;26.178;2023-03-01T04:30:53;11.35;;;2.10;;
64225;SDS011;50545;56.064;26.178;2023-03-01T04:33:22;6.45;;;1.80;;
64225;SDS011;50545;56.064;26.178;2023-03-01T04:35:50;6.47;;;2.22;;
64225;SDS011;50545;56.064;26.178;2023-03-01T04:38:18;4.90;;;1.67;;
64225;SDS011;50545;56.064;26.178;2023-03-01T04:40:45;8.05;;;1.95;;
64225;SDS011;50545;56.064;26.178;2023-03-01T04:43:13;6.63;;;1.80;;
64225;SDS011;50545;56.064;26.178;2023-03-01T04:45:44;7.55;;;1.73;;
64225;SDS011;50545;56.064;26.178;2023-03-01T04:48:11;4.63;;;1.60;;
64225;SDS011;50545;56.064;26.178;2023-03-01T04:50:38;8.05;;;2.08;;
64225;SDS011;50545;56.064;26.178;2023-03-01T04:53:05;8.30;;;1.60;;
64225;SDS011;50545;56.064;26.178;2023-03-01T04:55:33;7.85;;;1.85;;
64225;SDS011;50545;56.064;26.178;2023-03-01T04:58:00;7.95;;;1.90;;
64225;SDS011;50545;56.064;26.178;2023-03-01T05:00:27;6.18;;;1.63;;
64225;SDS011;50545;56.064;26.178;2023-03-01T05:02:56;4.57;;;1.77;;
64225;SDS011;50545;56.064;26.178;2023-03-01T05:05:27;6.78;;;1.70;;
64225;SDS011;50545;56.064;26.178;2023-03-01T05:07:58;8.43;;;1.70;;
64225;SDS011;50545;56.064;26.178;2023-03-01T05:10:28;10.30;;;1.70;;
64225;SDS011;50545;56.064;26.178;2023-03-01T05:12:57;4.60;;;1.50;;
64225;SDS011;50545;56.064;26.178;2023-03-01T05:15:26;9.00;;;2.10;;
64225;SDS011;50545;56.064;26.178;2023-03-01T05:17:55;5.68;;;1.63;;
64225;SDS011;50545;56.064;26.178;2023-03-01T05:20:27;4.03;;;1.40;;
64225;SDS011;50545;56.064;26.178;2023-03-01T05:22:57;6.57;;;1.70;;
64225;SDS011;50545;56.064;26.178;2023-03-01T05:25:25;4.88;;;1.70;;
64225;SDS011;50545;56.064;26.178;2023-03-01T05:27:53;7.90;;;2.60;;
64225;SDS011;50545;56.064;26.178;2023-03-01T05:30:20;7.45;;;1.90;;
64225;SDS011;50545;56.064;26.178;2023-03-01T05:32:49;6.82;;;1.95;;
64225;SDS011;50545;56.064;26.178;2023-03-01T05:35:22;8.50;;;2.03;;
64225;SDS011;50545;56.064;26.178;2023-03-01T05:37:50;4.22;;;1.38;;
64225;SDS011;50545;56.064;26.178;2023-03-01T05:40:19;5.85;;;1.50;;
64225;SDS011;50545;56.064;26.178;2023-03-01T05:42:49;13.37;;;2.53;;
64225;SDS011;50545;56.064;26.178;2023-03-01T05:45:19;6.53;;;2.05;;
64225;SDS011;50545;56.064;26.178;2023-03-01T05:47:48;3.78;;;1.38;;
64225;SDS011;50545;56.064;26.178;2023-03-01T05:50:20;6.97;;;1.98;;
64225;SDS011;50545;56.064;26.178;2023-03-01T05:52:50;10.07;;;1.85;;
64225;SDS011;50545;56.064;26.178;2023-03-01T05:55:19;6.75;;;2.08;;
64225;SDS011;50545;56.064;26.178;2023-03-01T05:57:47;9.30;;;2.45;;
64225;SDS011;50545;56.064;26.178;2023-03-01T06:00:17;10.13;;;2.88;;
64225;SDS011;50545;56.064;26.178;2023-03-01T06:02:46;9.73;;;3.03;;
64225;SDS011;50545;56.064;26.178;2023-03-01T06:05:13;8.95;;;3.35;;
64225;SDS011;50545;56.064;26.178;2023-03-01T06:07:41;12.93;;;3.00;;
64225;SDS011;50545;56.064;26.178;2023-03-01T06:10:08;9.85;;;2.58;;
64225;SDS011;50545;56.064;26.178;2023-03-01T06:12:37;9.07;;;2.40;;
64225;SDS011;50545;56.064;26.178;2023-03-01T06:15:06;7.68;;;2.40;;
64225;SDS011;50545;56.064;26.178;2023-03-01T06:17:37;6.75;;;1.85;;
64225;SDS011;50545;56.064;26.178;2023-03-01T06:20:10;8.85;;;2.50;;
64225;SDS011;50545;56.064;26.178;2023-03-01T06:22:38;8.52;;;1.70;;
64225;SDS011;50545;56.064;26.178;2023-03-01T06:25:06;6.68;;;1.45;;
64225;SDS011;50545;56.064;26.178;2023-03-01T06:27:34;8.73;;;1.50;;
64225;SDS011;50545;56.064;26.178;2023-03-01T06:30:02;5.05;;;1.60;;
64225;SDS011;50545;56.064;26.178;2023-03-01T06:32:30;5.68;;;2.13;;
64225;SDS011;50545;56.064;26.178;2023-03-01T06:34:58;7.82;;;1.67;;
64225;SDS011;50545;56.064;26.178;2023-03-01T06:37:25;5.10;;;1.40;;
64225;SDS011;50545;56.064;26.178;2023-03-01T06:39:52;6.18;;;1.63;;
64225;SDS011;50545;56.064;26.178;2023-03-01T06:42:19;8.45;;;1.73;;
64225;SDS011;50545;56.064;26.178;2023-03-01T06:44:46;5.65;;;1.50;;
64225;SDS011;50545;56.064;26.178;2023-03-01T06:47:14;8.38;;;1.73;;
64225;SDS011;50545;56.064;26.178;2023-03-01T06:49:41;6.68;;;1.60;;
64225;SDS011;50545;56.064;26.178;2023-03-01T06:52:08;6.20;;;1.77;;
64225;SDS011;50545;56.064;26.178;2023-03-01T06:54:35;4.88;;;1.40;;
64225;SDS011;50545;56.064;26.178;2023-03-01T06:57:02;6.18;;;1.42;;
64225;SDS011;50545;56.064;26.178;2023-03-01T06:59:30;5.45;;;1.58;;
64225;SDS011;50545;56.064;26.178;2023-03-01T07:01:58;6.00;;;1.63;;
64225;SDS011;50545;56.064;26.178;2023-03-01T07:04:25;9.18;;;1.60;;
64225;SDS011;50545;56.064;26.178;2023-03-01T07:06:54;6.30;;;2.20;;
64225;SDS011;50545;56.064;26.178;2023-03-01T07:09:22;4.70;;;1.23;;
64225;SDS011;50545;56.064;26.178;2023-03-01T07:11:50;8.43;;;1.60;;
64225;SDS011;50545;56.064;26.178;2023-03-01T07:14:17;9.45;;;2.05;;
64225;SDS011;50545;56.064;26.178;2023-03-01T07:16:46;2.92;;;1.40;;
64225;SDS011;50545;56.064;26.178;2023-03-01T07:19:13;4.50;;;1.60;;
64225;SDS011;50545;56.064;26.178;2023-03-01T07:21:40;7.80;;;1.70;;
64225;SDS011;50545;56.064;26.178;2023-03-01T07:24:08;4.72;;;1.60;;
64225;SDS011;50545;56.064;26.178;2023-03-01T07:26:36;6.22;;;1.45;;
64225;SDS011;50545;56.064;26.178;2023-03-01T07:29:04;10.95;;;2.03;;
64225;SDS011;50545;56.064;26.178;2023-03-01T07:31:32;9.27;;;1.85;;
64225;SDS011;50545;56.064;26.178;2023-03-01T07:33:59;5.40;;;1.55;;
64225;SDS011;50545;56.064;26.178;2023-03-01T07:36:26;7.30;;;1.88;;
64225;SDS011;50545;56.064;26.178;2023-03-01T07:38:54;5.22;;;1.40;;
64225;SDS011;50545;56.064;26.178;2023-03-01T07:41:22;6.68;;;1.80;;
64225;SDS011;50545;56.064;26.178;2023-03-01T07:43:49;7.90;;;1.73;;
64225;SDS011;50545;56.064;26.178;2023-03-01T07:46:16;5.00;;;1.55;;
64225;SDS011;50545;56.064;26.178;2023-03-01T07:48:45;6.03;;;1.40;;
64225;SDS011;50545;56.064;26.178;2023-03-01T07:51:13;7.95;;;2.03;;
64225;SDS011;50545;56.064;26.178;2023-03-01T07:53:40;8.13;;;1.65;;
64225;SDS011;50545;56.064;26.178;2023-03-01T07:56:09;7.95;;;1.88;;
64225;SDS011;50545;56.064;26.178;2023-03-01T07:58:38;10.80;;;2.05;;
64225;SDS011;50545;56.064;26.178;2023-03-01T08:01:08;8.00;;;1.60;;
64225;SDS011;50545;56.064;26.178;2023-03-01T08:03:37;5.38;;;1.50;;
64225;SDS011;50545;56.064;26.178;2023-03-01T08:06:06;5.72;;;1.88;;
64225;SDS011;50545;56.064;26.178;2023-03-01T08:08:34;4.18;;;1.48;;
64225;SDS011;50545;56.064;26.178;2023-03-01T08:11:02;6.45;;;1.60;;
64225;SDS011;50545;56.064;26.178;2023-03-01T08:13:31;6.28;;;1.52;;
64225;SDS011;50545;56.064;26.178;2023-03-01T08:16:02;9.05;;;2.40;;
64225;SDS011;50545;56.064;26.178;2023-03-01T08:18:34;7.30;;;2.08;;
64225;SDS011;50545;56.064;26.178;2023-03-01T08:21:02;8.95;;;1.80;;
64225;SDS011;50545;56.064;26.178;2023-03-01T08:23:34;3.45;;;1.30;;
64225;SDS011;50545;56.064;26.178;2023-03-01T08:28:40;9.48;;;2.10;;
64225;SDS011;50545;56.064;26.178;2023-03-01T08:31:14;7.18;;;1.90;;
64225;SDS011;50545;56.064;26.178;2023-03-01T08:33:54;5.25;;;1.50;;
64225;SDS011;50545;56.064;26.178;2023-03-01T08:36:23;4.50;;;1.33;;
64225;SDS011;50545;56.064;26.178;2023-03-01T08:38:52;6.05;;;1.80;;
64225;SDS011;50545;56.064;26.178;2023-03-01T08:41:19;8.82;;;1.95;;
64225;SDS011;50545;56.064;26.178;2023-03-01T08:43:47;3.88;;;1.40;;
64225;SDS011;50545;56.064;26.178;2023-03-01T08:46:14;5.28;;;1.30;;
64225;SDS011;50545;56.064;26.178;2023-03-01T08:48:41;6.68;;;1.65;;
64225;SDS011;50545;56.064;26.178;2023-03-01T08:51:10;5.18;;;1.33;;
64225;SDS011;50545;56.064;26.178;2023-03-01T08:53:40;5.82;;;1.33;;
64225;SDS011;50545;56.064;26.178;2023-03-01T08:56:08;3.95;;;1.20;;
64225;SDS011;50545;56.064;26.178;2023-03-01T08:58:36;6.68;;;2.28;;
64225;SDS011;50545;56.064;26.178;2023-03-01T09:01:07;7.20;;;1.50;;
64225;SDS011;50545;56.064;26.178;2023-03-01T09:03:37;5.40;;;1.42;;
64225;SDS011;50545;56.064;26.178;2023-03-01T09:06:05;7.65;;;1.58;;
64225;SDS011;50545;56.064;26.178;2023-03-01T09:08:37;5.75;;;1.33;;
64225;SDS011;50545;56.064;26.178;2023-03-01T09:11:07;5.90;;;1.60;;
64225;SDS011;50545;56.064;26.178;2023-03-01T09:13:35;8.55;;;1.88;;
64225;SDS011;50545;56.064;26.178;2023-03-01T09:16:03;9.23;;;1.83;;
64225;SDS011;50545;56.064;26.178;2023-03-01T09:18:33;7.45;;;1.30;;
64225;SDS011;50545;56.064;26.178;2023-03-01T09:21:06;5.80;;;1.58;;
64225;SDS011;50545;56.064;26.178;2023-03-01T09:23:35;4.38;;;1.52;;
64225;SDS011;50545;56.064;26.178;2023-03-01T09:28:32;6.35;;;1.77;;
64225;SDS011;50545;56.064;26.178;2023-03-01T09:31:00;6.35;;;1.35;;
64225;SDS011;50545;56.064;26.178;2023-03-01T09:33:28;4.07;;;1.48;;
64225;SDS011;50545;56.064;26.178;2023-03-01T09:35:57;8.50;;;1.65;;
64225;SDS011;50545;56.064;26.178;2023-03-01T09:38:30;8.52;;;1.70;;
64225;SDS011;50545;56.064;26.178;2023-03-01T09:40:58;4.03;;;1.50;;
64225;SDS011;50545;56.064;26.178;2023-03-01T09:43:31;5.70;;;1.85;;
64225;SDS011;50545;56.064;26.178;2023-03-01T09:46:09;6.60;;;2.03;;
64225;SDS011;50545;56.064;26.178;2023-03-01T09:48:44;3.88;;;1.27;;
64225;SDS011;50545;56.064;26.178;2023-03-01T09:51:18;5.75;;;1.67;;
64225;SDS011;50545;56.064;26.178;2023-03-01T09:53:52;6.40;;;1.08;;
64225;SDS011;50545;56.064;26.178;2023-03-01T09:56:22;6.75;;;1.15;;
64225;SDS011;50545;56.064;26.178;2023-03-01T10:09:38;5.15;;;1.25;;
64225;SDS011;50545;56.064;26.178;2023-03-01T10:12:10;5.90;;;1.70;;
64225;SDS011;50545;56.064;26.178;2023-03-01T10:14:46;5.55;;;1.42;;
64225;SDS011;50545;56.064;26.178;2023-03-01T10:22:44;5.40;;;1.35;;
64225;SDS011;50545;56.064;26.178;2023-03-01T10:25:36;4.60;;;1.38;;
64225;SDS011;50545;56.064;26.178;2023-03-01T10:28:29;4.90;;;1.25;;
64225;SDS011;50545;56.064;26.178;2023-03-01T10:31:18;4.78;;;1.30;;
64225;SDS011;50545;56.064;26.178;2023-03-01T10:33:49;6.88;;;1.75;;
64225;SDS011;50545;56.064;26.178;2023-03-01T10:36:22;8.18;;;1.80;;
64225;SDS011;50545;56.064;26.178;2023-03-01T10:38:51;5.32;;;1.95;;
64225;SDS011;50545;56.064;26.178;2023-03-01T10:41:21;7.60;;;2.20;;
64225;SDS011;50545;56.064;26.178;2023-03-01T10:43:51;9.88;;;1.88;;
64225;SDS011;50545;56.064;26.178;2023-03-01T10:46:58;7.90;;;1.55;;
64225;SDS011;50545;56.064;26.178;2023-03-01T10:49:25;9.80;;;2.25;;
64225;SDS011;50545;56.064;26.178;2023-03-01T10:51:53;4.00;;;1.48;;
64225;SDS011;50545;56.064;26.178;2023-03-01T10:54:33;4.68;;;1.38;;
64225;SDS011;50545;56.064;26.178;2023-03-01T10:57:01;6.88;;;2.00;;
64225;SDS011;50545;56.064;26.178;2023-03-01T10:59:34;7.03;;;2.00;;
64225;SDS011;50545;56.064;26.178;2023-03-01T11:04:59;3.72;;;1.20;;
64225;SDS011;50545;56.064;26.178;2023-03-01T11:07:27;4.35;;;1.50;;
64225;SDS011;50545;56.064;26.178;2023-03-01T11:09:55;4.78;;;1.77;;
64225;SDS011;50545;56.064;26.178;2023-03-01T11:12:22;6.72;;;1.75;;
64225;SDS011;50545;56.064;26.178;2023-03-01T11:14:52;4.88;;;1.60;;
64225;SDS011;50545;56.064;26.178;2023-03-01T11:17:23;5.50;;;1.55;;
64225;SDS011;50545;56.064;26.178;2023-03-01T11:20:02;5.72;;;1.40;;
64225;SDS011;50545;56.064;26.178;2023-03-01T11:22:32;7.43;;;1.95;;
64225;SDS011;50545;56.064;26.178;2023-03-01T11:25:02;5.10;;;1.95;;
64225;SDS011;50545;56.064;26.178;2023-03-01T11:27:40;7.20;;;2.20;;
64225;SDS011;50545;56.064;26.178;2023-03-01T11:30:24;7.35;;;2.00;;
64225;SDS011;50545;56.064;26.178;2023-03-01T11:35:35;8.20;;;2.40;;
64225;SDS011;50545;56.064;26.178;2023-03-01T11:38:25;5.45;;;2.00;;
64225;SDS011;50545;56.064;26.178;2023-03-01T11:52:13;5.18;;;2.05;;
64225;SDS011;50545;56.064;26.178;2023-03-01T11:55:13;7.85;;;2.10;;
64225;SDS011;50545;56.064;26.178;2023-03-01T12:06:31;9.93;;;2.03;;
64225;SDS011;50545;56.064;26.178;2023-03-01T12:23:38;5.85;;;1.70;;
64225;SDS011;50545;56.064;26.178;2023-03-01T12:26:35;5.75;;;1.42;;
64225;SDS011;50545;56.064;26.178;2023-03-01T12:32:12;8.93;;;1.75;;
64225;SDS011;50545;56.064;26.178;2023-03-01T12:45:48;6.38;;;1.58;;
64225;SDS011;50545;56.064;26.178;2023-03-01T12:48:39;4.72;;;1.45;;
64225;SDS011;50545;56.064;26.178;2023-03-01T12:51:13;7.32;;;1.70;;
64225;SDS011;50545;56.064;26.178;2023-03-01T12:53:46;6.05;;;1.70;;
64225;SDS011;50545;56.064;26.178;2023-03-01T12:56:16;9.85;;;2.28;;
64225;SDS011;50545;56.064;26.178;2023-03-01T13:15:33;6.53;;;1.98;;
64225;SDS011;50545;56.064;26.178;2023-03-01T13:26:11;5.50;;;1.40;;
64225;SDS011;50545;56.064;26.178;2023-03-01T13:28:56;6.50;;;1.80;;
64225;SDS011;50545;56.064;26.178;2023-03-01T13:33:54;4.63;;;1.48;;
64225;SDS011;50545;56.064;26.178;2023-03-01T13:39:02;7.53;;;2.00;;
64225;SDS011;50545;56.064;26.178;2023-03-01T13:41:53;5.85;;;1.65;;
64225;SDS011;50545;56.064;26.178;2023-03-01T13:47:05;4.85;;;1.42;;
64225;SDS011;50545;56.064;26.178;2023-03-01T13:49:47;6.13;;;1.88;;
64225;SDS011;50545;56.064;26.178;2023-03-01T13:54:59;4.13;;;1.42;;
64225;SDS011;50545;56.064;26.178;2023-03-01T13:57:30;5.75;;;1.45;;
64225;SDS011;50545;56.064;26.178;2023-03-01T14:00:00;5.38;;;1.73;;
64225;SDS011;50545;56.064;26.178;2023-03-01T14:02:29;7.72;;;1.80;;
64225;SDS011;50545;56.064;26.178;2023-03-01T14:05:00;5.30;;;1.40;;
64225;SDS011;50545;56.064;26.178;2023-03-01T14:07:27;4.63;;;1.38;;
64225;SDS011;50545;56.064;26.178;2023-03-01T14:09:59;3.25;;;1.30;;
64225;SDS011;50545;56.064;26.178;2023-03-01T14:12:36;5.95;;;1.50;;
64225;SDS011;50545;56.064;26.178;2023-03-01T14:16:16;4.43;;;1.80;;
64225;SDS011;50545;56.064;26.178;2023-03-01T14:21:26;2.97;;;1.30;;
64225;SDS011;50545;56.064;26.178;2023-03-01T14:23:54;4.28;;;1.67;;
64225;SDS011;50545;56.064;26.178;2023-03-01T14:26:22;7.75;;;1.83;;
64225;SDS011;50545;56.064;26.178;2023-03-01T14:28:49;4.57;;;1.80;;
64225;SDS011;50545;56.064;26.178;2023-03-01T14:31:37;5.20;;;2.08;;
64225;SDS011;50545;56.064;26.178;2023-03-01T14:34:19;5.45;;;1.90;;
64225;SDS011;50545;56.064;26.178;2023-03-01T14:36:50;5.40;;;1.98;;
64225;SDS011;50545;56.064;26.178;2023-03-01T14:39:19;5.72;;;2.20;;
64225;SDS011;50545;56.064;26.178;2023-03-01T14:41:50;6.05;;;1.80;;
64225;SDS011;50545;56.064;26.178;2023-03-01T14:44:24;5.28;;;1.58;;
64225;SDS011;50545;56.064;26.178;2023-03-01T14:46:52;6.07;;;1.80;;
64225;SDS011;50545;56.064;26.178;2023-03-01T14:49:23;5.60;;;2.10;;
64225;SDS011;50545;56.064;26.178;2023-03-01T14:51:54;6.65;;;2.10;;
64225;SDS011;50545;56.064;26.178;2023-03-01T14:54:43;5.63;;;1.58;;
64225;SDS011;50545;56.064;26.178;2023-03-01T14:57:20;6.25;;;2.00;;
64225;SDS011;50545;56.064;26.178;2023-03-01T14:59:50;5.97;;;2.10;;
64225;SDS011;50545;56.064;26.178;2023-03-01T15:02:23;4.80;;;1.80;;
64225;SDS011;50545;56.064;26.178;2023-03-01T15:04:54;4.20;;;1.70;;
64225;SDS011;50545;56.064;26.178;2023-03-01T15:07:28;5.65;;;1.90;;
64225;SDS011;50545;56.064;26.178;2023-03-01T15:10:01;4.65;;;1.80;;
64225;SDS011;50545;56.064;26.178;2023-03-01T15:12:37;7.20;;;1.98;;
64225;SDS011;50545;56.064;26.178;2023-03-01T15:17:53;5.47;;;1.70;;
64225;SDS011;50545;56.064;26.178;2023-03-01T15:20:24;3.85;;;1.45;;
64225;SDS011;50545;56.064;26.178;2023-03-01T15:22:53;6.53;;;2.00;;
64225;SDS011;50545;56.064;26.178;2023-03-01T15:25:26;6.43;;;1.83;;
64225;SDS011;50545;56.064;26.178;2023-03-01T15:27:56;3.65;;;1.50;;
64225;SDS011;50545;56.064;26.178;2023-03-01T15:30:32;3.38;;;1.70;;
64225;SDS011;50545;56.064;26.178;2023-03-01T15:33:17;4.00;;;1.52;;
64225;SDS011;50545;56.064;26.178;2023-03-01T15:36:02;6.25;;;1.77;;
64225;SDS011;50545;56.064;26.178;2023-03-01T15:41:28;3.13;;;1.50;;
64225;SDS011;50545;56.064;26.178;2023-03-01T15:47:22;5.63;;;1.88;;
64225;SDS011;50545;56.064;26.178;2023-03-01T15:49:55;4.80;;;1.80;;
64225;SDS011;50545;56.064;26.178;2023-03-01T15:54:59;5.88;;;1.63;;
64225;SDS011;50545;56.064;26.178;2023-03-01T15:57:29;3.13;;;1.33;;
64225;SDS011;50545;56.064;26.178;2023-03-01T15:59:56;2.58;;;1.55;;
64225;SDS011;50545;56.064;26.178;2023-03-01T16:02:23;4.70;;;1.73;;
64225;SDS011;50545;56.064;26.178;2023-03-01T16:04:51;5.63;;;1.77;;
64225;SDS011;50545;56.064;26.178;2023-03-01T16:07:20;5.53;;;1.98;;
64225;SDS011;50545;56.064;26.178;2023-03-01T16:09:47;3.75;;;1.58;;
64225;SDS011;50545;56.064;26.178;2023-03-01T16:12:14;4.95;;;1.98;;
64225;SDS011;50545;56.064;26.178;2023-03-01T16:14:43;5.53;;;2.13;;
64225;SDS011;50545;56.064;26.178;2023-03-01T16:17:10;3.95;;;1.80;;
64225;SDS011;50545;56.064;26.178;2023-03-01T16:19:37;6.55;;;2.08;;
64225;SDS011;50545;56.064;26.178;2023-03-01T16:22:04;4.50;;;2.25;;
64225;SDS011;50545;56.064;26.178;2023-03-01T16:24:32;5.15;;;1.70;;
64225;SDS011;50545;56.064;26.178;2023-03-01T16:26:59;3.88;;;1.80;;
64225;SDS011;50545;56.064;26.178;2023-03-01T16:29:26;7.05;;;1.98;;
64225;SDS011;50545;56.064;26.178;2023-03-01T16:31:55;4.70;;;1.70;;
64225;SDS011;50545;56.064;26.178;2023-03-01T16:34:23;5.72;;;2.10;;
64225;SDS011;50545;56.064;26.178;2023-03-01T16:36:50;4.88;;;1.70;;
64225;SDS011;50545;56.064;26.178;2023-03-01T16:39:17;6.35;;;2.00;;
64225;SDS011;50545;56.064;26.178;2023-03-01T16:41:44;4.72;;;1.77;;
64225;SDS011;50545;56.064;26.178;2023-03-01T16:44:11;6.45;;;2.20;;
64225;SDS011;50545;56.064;26.178;2023-03-01T16:46:38;4.57;;;2.25;;
64225;SDS011;50545;56.064;26.178;2023-03-01T16:49:08;3.88;;;1.98;;
64225;SDS011;50545;56.064;26.178;2023-03-01T16:51:36;8.50;;;2.63;;
64225;SDS011;50545;56.064;26.178;2023-03-01T16:54:03;4.63;;;2.08;;
64225;SDS011;50545;56.064;26.178;2023-03-01T16:56:31;7.55;;;2.08;;
64225;SDS011;50545;56.064;26.178;2023-03-01T16:59:00;7.27;;;2.37;;
64225;SDS011;50545;56.064;26.178;2023-03-01T17:01:31;6.15;;;2.10;;
64225;SDS011;50545;56.064;26.178;2023-03-01T17:04:06;5.25;;;2.00;;
64225;SDS011;50545;56.064;26.178;2023-03-01T17:06:35;7.28;;;2.53;;
64225;SDS011;50545;56.064;26.178;2023-03-01T17:09:03;7.55;;;1.92;;
64225;SDS011;50545;56.064;26.178;2023-03-01T17:11:30;6.45;;;2.30;;
64225;SDS011;50545;56.064;26.178;2023-03-01T17:13:58;7.65;;;1.67;;
64225;SDS011;50545;56.064;26.178;2023-03-01T17:16:25;4.25;;;1.60;;
64225;SDS011;50545;56.064;26.178;2023-03-01T17:18:53;5.32;;;1.70;;